Time;durP1;ratioP1;P1;durP2;ratioP2;P2;SDS_P1;SDS_P2;PMS_P1;PMS_P2;Temp;Humidity;BMP_temperature;BMP_pressure;BME280_temperature;BME280_humidity;BME280_pressure;Samples;Min_cycle;Max_cycle;Signal;HPM_P1;HPM_P2
2021/06/02 00:00:28;;;;;;;3.92;2.15;;;16.30;90.00;;;;;;6191866;23;20570;-96
2021/06/02 00:02:59;;;;;;;4.20;2.75;;;16.30;90.50;;;;;;6192134;23;20216;-95
2021/06/02 00:05:26;;;;;;;5.85;2.60;;;16.30;90.70;;;;;;6191660;23;20508;-95
2021/06/02 00:07:51;;;;;;;3.45;2.38;;;16.30;91.10;;;;;;6191859;23;20232;-95
2021/06/02 00:10:19;;;;;;;5.80;2.13;;;16.20;91.30;;;;;;6191637;23;20236;-93
2021/06/02 00:12:45;;;;;;;3.90;2.80;;;16.30;91.80;;;;;;6191120;23;20146;-95
2021/06/02 00:15:12;;;;;;;4.97;2.78;;;16.30;92.40;;;;;;6191816;23;20260;-95
2021/06/02 00:17:38;;;;;;;3.72;2.55;;;16.20;92.80;;;;;;6191794;23;20229;-95
2021/06/02 00:20:14;;;;;;;4.18;2.00;;;16.20;93.10;;;;;;6191630;23;20168;-92
2021/06/02 00:22:40;;;;;;;5.53;2.40;;;16.20;93.40;;;;;;6192026;23;20154;-93
2021/06/02 00:25:07;;;;;;;5.40;2.30;;;16.20;93.90;;;;;;6191750;23;20562;-93
2021/06/02 00:27:35;;;;;;;5.97;2.65;;;16.10;94.00;;;;;;6191516;23;20650;-96
2021/06/02 00:30:34;;;;;;;3.72;2.22;;;16.10;94.00;;;;;;6218147;23;20178;-95
2021/06/02 00:33:00;;;;;;;3.78;2.50;;;16.10;94.50;;;;;;6191476;23;20154;-92
2021/06/02 00:35:26;;;;;;;3.63;2.17;;;16.10;94.50;;;;;;6191479;23;20165;-93
2021/06/02 00:37:52;;;;;;;3.38;2.30;;;16.10;94.70;;;;;;6191731;23;20158;-91
2021/06/02 00:40:30;;;;;;;3.08;2.15;;;16.10;94.60;;;;;;6218139;23;20200;-94
2021/06/02 00:42:56;;;;;;;2.83;2.25;;;16.10;94.90;;;;;;6191652;23;20165;-94
2021/06/02 00:45:23;;;;;;;3.88;2.22;;;16.10;95.30;;;;;;6191542;23;20189;-94
2021/06/02 00:47:49;;;;;;;4.30;2.50;;;16.10;95.40;;;;;;6190828;23;20162;-94
2021/06/02 00:50:24;;;;;;;5.20;2.38;;;16.10;95.70;;;;;;6191533;23;20189;-93
2021/06/02 00:52:49;;;;;;;4.55;2.42;;;16.10;95.80;;;;;;6191257;23;20152;-94
2021/06/02 00:55:15;;;;;;;2.92;2.28;;;16.10;95.70;;;;;;6191186;23;20162;-93
2021/06/02 00:57:48;;;;;;;3.67;2.20;;;16.00;96.20;;;;;;6191385;23;20161;-94
2021/06/02 01:00:24;;;;;;;4.32;2.35;;;16.00;95.90;;;;;;6191442;23;20158;-93
2021/06/02 01:02:53;;;;;;;3.65;2.40;;;16.00;95.90;;;;;;6191316;23;20157;-94
2021/06/02 01:05:22;;;;;;;4.07;2.53;;;15.90;96.40;;;;;;6191184;23;20604;-94
2021/06/02 01:07:53;;;;;;;3.95;2.33;;;15.90;96.80;;;;;;6191193;23;20161;-94
2021/06/02 01:10:20;;;;;;;8.40;2.40;;;15.90;96.60;;;;;;6191303;23;20192;-94
2021/06/02 01:12:50;;;;;;;3.22;2.40;;;15.90;96.80;;;;;;6190972;23;20184;-93
2021/06/02 01:15:19;;;;;;;4.13;2.45;;;15.90;97.00;;;;;;6191414;23;20150;-93
2021/06/02 01:17:46;;;;;;;4.43;2.30;;;15.90;96.90;;;;;;6190923;23;20162;-94
2021/06/02 01:20:27;;;;;;;3.80;2.20;;;15.80;97.20;;;;;;6193266;23;20158;-94
2021/06/02 01:22:53;;;;;;;6.32;2.28;;;15.70;97.30;;;;;;6193791;23;20483;-93
2021/06/02 01:25:22;;;;;;;3.42;2.00;;;15.70;97.40;;;;;;6193549;23;20153;-93
2021/06/02 01:27:48;;;;;;;3.88;2.47;;;15.70;97.60;;;;;;6193239;23;20216;-93
2021/06/02 01:30:19;;;;;;;4.07;2.42;;;15.60;97.60;;;;;;6193380;23;20193;-96
2021/06/02 01:33:23;;;;;;;3.33;2.28;;;15.60;98.00;;;;;;6193085;23;20153;-94
2021/06/02 01:36:03;;;;;;;5.60;2.10;;;15.60;98.00;;;;;;6174972;23;20329;-92
2021/06/02 01:38:44;;;;;;;3.20;1.73;;;15.50;98.00;;;;;;6248543;23;20211;-94
2021/06/02 01:41:22;;;;;;;3.55;2.20;;;15.60;98.10;;;;;;6248702;23;20209;-91
2021/06/02 01:44:03;;;;;;;3.10;1.83;;;15.50;98.10;;;;;;6248743;23;20579;-93
2021/06/02 01:46:29;;;;;;;6.70;1.98;;;15.40;98.00;;;;;;6248927;23;20164;-92
2021/06/02 01:49:42;;;;;;;4.22;2.05;;;15.40;98.20;;;;;;6222937;23;20153;-94
2021/06/02 01:52:44;;;;;;;3.60;1.98;;;15.40;98.10;;;;;;6249062;23;20154;-94
2021/06/02 01:55:41;;;;;;;3.58;1.88;;;15.40;98.20;;;;;;6248748;23;20159;-95
2021/06/02 01:58:26;;;;;;;2.80;1.80;;;15.40;97.90;;;;;;6248928;23;20153;-93
2021/06/02 02:01:07;;;;;;;2.72;1.50;;;15.40;97.70;;;;;;6248712;23;20157;-94
2021/06/02 02:03:37;;;;;;;1.95;1.60;;;15.40;97.80;;;;;;6249005;23;20153;-95
2021/06/02 02:06:18;;;;;;;2.72;1.45;;;15.40;97.30;;;;;;6248535;23;20235;-94
2021/06/02 02:09:08;;;;;;;2.95;1.73;;;15.40;97.40;;;;;;6248908;23;20205;-92
2021/06/02 02:11:36;;;;;;;1.92;1.50;;;15.40;97.60;;;;;;6248809;23;20173;-94
2021/06/02 02:14:21;;;;;;;1.58;1.42;;;15.30;97.40;;;;;;6248347;23;20158;-94
2021/06/02 02:16:50;;;;;;;2.20;1.52;;;15.40;97.60;;;;;;6247830;23;20284;-93
2021/06/02 02:20:03;;;;;;;2.55;1.35;;;15.30;97.30;;;;;;6249305;23;20153;-94
2021/06/02 02:22:56;;;;;;;2.20;1.38;;;15.30;96.80;;;;;;6248306;23;20153;-94
2021/06/02 02:25:53;;;;;;;3.90;1.35;;;15.30;96.60;;;;;;6248703;23;20153;-95
2021/06/02 02:28:39;;;;;;;4.85;1.13;;;15.30;96.40;;;;;;6248669;23;20211;-94
2021/06/02 02:31:24;;;;;;;4.28;1.55;;;15.10;96.30;;;;;;6248384;23;20604;-92
2021/06/02 02:34:30;;;;;;;4.78;1.40;;;15.10;96.90;;;;;;6248022;23;20152;-94
2021/06/02 02:37:10;;;;;;;1.45;1.10;;;15.10;97.10;;;;;;6248165;23;20288;-94
2021/06/02 02:40:01;;;;;;;5.22;1.42;;;15.00;96.70;;;;;;6248321;23;20533;-94
2021/06/02 02:42:52;;;;;;;2.20;1.00;;;15.00;96.60;;;;;;6248493;23;20153;-93
2021/06/02 02:45:41;;;;;;;1.13;0.95;;;15.00;96.50;;;;;;6248266;23;20162;-95
2021/06/02 02:48:25;;;;;;;3.47;1.13;;;15.00;96.80;;;;;;6247913;23;20169;-93
2021/06/02 02:51:32;;;;;;;2.47;1.20;;;15.00;96.60;;;;;;6248424;23;20194;-96
2021/06/02 02:54:03;;;;;;;2.45;1.00;;;15.00;96.40;;;;;;6202824;23;20161;-94
2021/06/02 02:57:18;;;;;;;2.80;1.60;;;14.90;96.50;;;;;;6248084;23;20568;-96
2021/06/02 02:59:58;;;;;;;4.13;1.33;;;14.90;96.50;;;;;;6209594;23;20162;-95
2021/06/02 03:02:54;;;;;;;3.45;1.10;;;14.80;96.30;;;;;;6248114;23;20156;-94
2021/06/02 03:05:26;;;;;;;2.58;1.33;;;14.80;96.50;;;;;;6248258;23;20154;-94
2021/06/02 03:08:14;;;;;;;2.60;1.17;;;14.70;96.70;;;;;;6248448;23;20203;-94
2021/06/02 03:10:44;;;;;;;2.38;1.02;;;14.70;96.40;;;;;;6249256;23;20267;-95
2021/06/02 03:13:25;;;;;;;4.82;1.13;;;14.70;96.40;;;;;;6249020;23;20203;-94
2021/06/02 03:16:00;;;;;;;4.25;1.17;;;14.70;96.50;;;;;;6249355;23;20149;-93
2021/06/02 03:19:16;;;;;;;1.65;1.08;;;14.70;96.30;;;;;;6223985;23;20148;-96
2021/06/02 03:22:05;;;;;;;2.15;1.17;;;14.70;96.20;;;;;;6248456;23;20447;-94
2021/06/02 03:24:45;;;;;;;4.82;1.10;;;14.70;96.30;;;;;;6248003;23;20161;-94
2021/06/02 03:27:17;;;;;;;6.95;1.25;;;14.70;96.10;;;;;;6247903;23;20149;-94
2021/06/02 03:30:18;;;;;;;3.28;0.80;;;14.70;96.20;;;;;;6247857;23;20492;-94
2021/06/02 03:33:05;;;;;;;1.75;1.08;;;14.70;96.10;;;;;;6248676;23;20156;-93
2021/06/02 03:35:58;;;;;;;3.83;1.20;;;14.60;96.00;;;;;;6248187;23;20157;-94
2021/06/02 03:38:54;;;;;;;3.20;1.00;;;14.60;96.20;;;;;;6249054;23;20161;-94
2021/06/02 03:42:02;;;;;;;1.95;1.10;;;14.50;96.10;;;;;;6222717;23;20157;-94
2021/06/02 03:44:53;;;;;;;1.88;1.10;;;14.50;96.10;;;;;;6249785;23;20176;-95
2021/06/02 03:47:45;;;;;;;3.35;1.08;;;14.40;96.30;;;;;;6248668;23;20237;-95
2021/06/02 03:50:20;;;;;;;2.35;1.10;;;14.40;96.10;;;;;;6248422;23;20612;-95
2021/06/02 03:52:49;;;;;;;2.38;0.80;;;14.30;96.40;;;;;;6247902;23;20156;-94
2021/06/02 03:55:51;;;;;;;2.70;1.00;;;14.40;96.30;;;;;;6248024;23;20193;-95
2021/06/02 03:58:38;;;;;;;2.65;1.00;;;14.30;96.60;;;;;;6248758;23;20517;-94
2021/06/02 04:01:19;;;;;;;6.10;1.05;;;14.30;96.60;;;;;;6249630;23;20149;-95
2021/06/02 04:04:05;;;;;;;3.10;1.15;;;14.30;96.60;;;;;;6268730;22;20157;-96
2021/06/02 14:06:10;;;;;;;5.65;2.40;;;24.80;77.90;;;;;;6286141;22;20192;31
2021/06/02 14:08:39;;;;;;;3.88;2.60;;;24.90;76.60;;;;;;6131442;23;20234;-95
2021/06/02 14:11:04;;;;;;;5.88;2.50;;;24.80;75.50;;;;;;6107071;23;20255;-93
2021/06/02 14:13:35;;;;;;;6.22;2.70;;;25.00;75.20;;;;;;6114288;23;20163;-96
2021/06/02 14:16:24;;;;;;;5.10;2.85;;;25.00;74.40;;;;;;6114402;23;20196;-96
2021/06/02 14:18:58;;;;;;;3.13;2.28;;;25.00;77.60;;;;;;6140345;23;20564;-95
2021/06/02 14:21:27;;;;;;;6.03;2.50;;;25.10;75.40;;;;;;6146841;23;20210;-96
2021/06/02 14:27:16;;;;;;;5.03;2.55;;;25.10;74.40;;;;;;6250350;22;20239;-94
2021/06/02 14:29:54;;;;;;;3.80;2.58;;;25.20;73.90;;;;;;6253811;23;20185;-96
2021/06/02 14:40:28;;;;;;;9.52;2.40;;;25.10;72.50;;;;;;6265589;22;20272;-95
2021/06/02 14:42:57;;;;;;;4.18;2.50;;;25.00;73.80;;;;;;6265292;23;20707;-95
2021/06/02 14:45:26;;;;;;;9.75;2.47;;;25.00;73.10;;;;;;6255527;23;20149;-96
2021/06/02 14:47:53;;;;;;;3.38;2.53;;;25.00;73.10;;;;;;6258971;23;20649;-96
2021/06/02 14:50:19;;;;;;;3.88;2.72;;;25.00;72.80;;;;;;6255834;23;20181;-96
2021/06/02 14:52:44;;;;;;;8.07;2.67;;;25.00;72.60;;;;;;6255681;23;20175;-96
2021/06/02 14:55:11;;;;;;;8.23;2.40;;;25.00;74.50;;;;;;6252778;23;20216;-96
2021/06/02 14:57:37;;;;;;;3.35;2.45;;;25.00;72.50;;;;;;6234837;23;20565;-96
2021/06/02 15:00:10;;;;;;;4.32;2.50;;;25.00;74.30;;;;;;6208196;23;20153;-96
2021/06/02 15:02:39;;;;;;;6.57;2.40;;;25.00;72.20;;;;;;6236605;23;20157;-96
2021/06/02 15:05:38;;;;;;;3.15;2.25;;;25.00;71.20;;;;;;6241678;22;20561;-96
2021/06/02 15:08:19;;;;;;;5.32;2.40;;;25.10;70.50;;;;;;6240086;23;20209;-96
2021/06/02 15:10:49;;;;;;;9.27;2.53;;;25.00;71.20;;;;;;6237527;23;20185;-96
2021/06/02 15:13:23;;;;;;;3.05;2.25;;;25.00;73.80;;;;;;6232338;23;20153;-96
2021/06/02 15:15:53;;;;;;;4.97;2.53;;;25.00;71.60;;;;;;6254018;23;20165;-96
2021/06/02 15:18:23;;;;;;;4.78;2.20;;;25.00;72.10;;;;;;6223593;23;20217;-95
2021/06/02 15:20:54;;;;;;;5.55;2.60;;;25.00;73.80;;;;;;6161795;23;20220;-93
2021/06/02 15:23:27;;;;;;;3.45;2.30;;;25.00;71.30;;;;;;6169143;23;20155;-96
2021/06/02 15:25:58;;;;;;;3.97;2.22;;;24.90;69.20;;;;;;6169457;23;20159;-95
2021/06/02 15:28:38;;;;;;;3.83;2.20;;;25.00;70.80;;;;;;6167152;23;20218;-96
2021/06/02 15:31:08;;;;;;;4.13;2.08;;;24.90;69.40;;;;;;6196422;23;20229;-96
2021/06/02 15:33:36;;;;;;;7.05;2.35;;;24.90;68.90;;;;;;6167708;23;20158;-96
2021/06/02 15:36:13;;;;;;;4.38;2.10;;;24.80;70.10;;;;;;6173136;23;20237;-96
2021/06/02 15:38:40;;;;;;;3.35;2.13;;;24.90;69.60;;;;;;6172577;23;20150;-95
2021/06/02 15:41:14;;;;;;;4.85;2.20;;;24.90;69.10;;;;;;6174401;23;20166;-96
2021/06/02 15:46:20;;;;;;;2.90;1.90;;;24.90;67.90;;;;;;6221380;23;20182;-95
2021/06/02 15:48:46;;;;;;;4.05;2.40;;;24.90;69.50;;;;;;6196207;23;20157;-95
2021/06/02 15:51:14;;;;;;;2.97;2.13;;;24.80;69.40;;;;;;6193945;23;20194;-95
2021/06/02 15:53:40;;;;;;;6.95;2.08;;;24.80;68.80;;;;;;6177644;23;20459;-96
2021/06/02 15:56:08;;;;;;;3.67;2.00;;;24.80;69.60;;;;;;6204013;23;20162;-96
2021/06/02 15:58:38;;;;;;;4.75;2.10;;;24.80;69.70;;;;;;6203950;23;20217;-96
2021/06/02 16:01:05;;;;;;;4.07;1.80;;;24.80;69.70;;;;;;6203899;23;20146;-96
2021/06/02 16:03:32;;;;;;;7.22;2.40;;;24.80;66.60;;;;;;6201692;23;20157;-96
2021/06/02 16:06:00;;;;;;;5.05;2.55;;;24.80;67.30;;;;;;6171406;23;20577;-96
2021/06/02 16:08:26;;;;;;;3.78;2.10;;;24.80;68.00;;;;;;6201127;23;20154;-96
2021/06/02 16:10:53;;;;;;;5.32;2.00;;;24.70;67.60;;;;;;6198089;23;20216;-96
2021/06/02 16:13:19;;;;;;;6.03;2.05;;;24.70;68.00;;;;;;6225064;23;20185;-96
2021/06/02 16:15:52;;;;;;;4.07;2.20;;;24.60;69.70;;;;;;6201865;23;20161;-96
2021/06/02 16:18:20;;;;;;;5.68;2.10;;;24.60;71.20;;;;;;6200319;23;20173;-96
2021/06/02 16:20:47;;;;;;;4.95;2.00;;;24.50;69.80;;;;;;6205853;23;20158;-96
2021/06/02 16:23:15;;;;;;;2.40;2.00;;;24.40;69.30;;;;;;6230512;23;20142;-96
2021/06/02 16:25:53;;;;;;;5.72;2.25;;;24.40;68.70;;;;;;6204363;23;20337;-96
2021/06/02 16:28:24;;;;;;;4.25;1.90;;;24.40;69.80;;;;;;6201885;23;20161;-96
2021/06/02 16:30:53;;;;;;;6.82;2.00;;;24.40;70.90;;;;;;6201047;23;20189;-96
2021/06/02 16:33:19;;;;;;;4.07;2.13;;;24.40;68.40;;;;;;6172448;23;20240;-96
2021/06/02 16:35:47;;;;;;;5.18;2.00;;;24.40;67.20;;;;;;6201001;23;20137;-96
2021/06/02 16:38:13;;;;;;;3.33;1.70;;;24.40;66.90;;;;;;6201243;23;20141;-96
2021/06/02 16:40:38;;;;;;;3.90;1.88;;;24.40;67.10;;;;;;6197461;23;20154;-95
2021/06/02 16:43:12;;;;;;;6.32;2.00;;;24.40;67.10;;;;;;6200483;23;20161;-96
2021/06/02 16:45:47;;;;;;;7.55;2.03;;;24.30;67.60;;;;;;6178523;23;20198;-96
2021/06/02 16:48:12;;;;;;;3.30;1.90;;;24.20;67.50;;;;;;6168772;23;20157;-96
2021/06/02 16:50:41;;;;;;;4.28;2.03;;;24.20;68.60;;;;;;6165060;23;20186;-96
2021/06/02 16:53:07;;;;;;;2.55;1.92;;;24.10;69.20;;;;;;6162791;23;20161;-95
2021/06/02 16:55:38;;;;;;;3.72;1.85;;;24.10;68.60;;;;;;6165686;23;20249;-96
2021/06/02 16:58:06;;;;;;;4.25;1.83;;;24.00;69.50;;;;;;6162794;23;20155;-96
2021/06/02 17:00:32;;;;;;;5.10;1.95;;;23.90;71.80;;;;;;6163755;23;20166;-96
2021/06/02 17:02:58;;;;;;;3.33;2.00;;;23.80;72.30;;;;;;6163961;23;20581;-96
2021/06/02 17:05:31;;;;;;;6.57;2.30;;;23.70;71.60;;;;;;6165322;23;20165;-96
2021/06/02 17:07:57;;;;;;;5.57;1.55;;;23.70;71.00;;;;;;6167238;23;20139;-96
2021/06/02 17:10:23;;;;;;;7.85;2.08;;;23.70;70.80;;;;;;6164277;23;20198;-96
2021/06/02 17:12:48;;;;;;;3.33;1.90;;;23.70;71.20;;;;;;6164893;23;20570;-96
2021/06/02 17:15:40;;;;;;;4.13;1.70;;;23.60;71.40;;;;;;6164693;23;20422;-96
2021/06/02 17:18:09;;;;;;;6.88;1.90;;;23.60;71.30;;;;;;6141312;23;20158;-96
2021/06/02 17:20:37;;;;;;;2.78;2.05;;;23.60;71.70;;;;;;6166044;23;20189;-96
2021/06/02 17:23:07;;;;;;;2.90;2.15;;;23.50;72.80;;;;;;6167884;23;20158;-95
2021/06/02 17:25:39;;;;;;;5.00;2.60;;;23.40;71.30;;;;;;6120970;23;20171;-96
2021/06/02 17:28:10;;;;;;;5.25;2.17;;;23.40;72.10;;;;;;6170049;23;20154;-96
2021/06/02 17:30:39;;;;;;;4.28;2.25;;;23.40;72.40;;;;;;6168031;23;20194;-96
2021/06/02 17:33:08;;;;;;;6.43;2.90;;;23.30;72.90;;;;;;6163919;23;20154;-96
2021/06/02 17:35:52;;;;;;;5.43;2.25;;;23.20;72.80;;;;;;6147868;23;20171;-96
2021/06/02 17:38:21;;;;;;;4.47;2.25;;;23.20;72.40;;;;;;6205389;23;20231;-96
2021/06/02 17:40:47;;;;;;;6.20;2.58;;;23.20;72.20;;;;;;6252626;23;20150;-96
2021/06/02 17:43:13;;;;;;;2.40;1.85;;;23.10;72.10;;;;;;6253313;23;20248;-96
2021/06/02 17:45:39;;;;;;;3.05;1.77;;;23.10;73.00;;;;;;6251526;23;20236;-96
2021/06/02 17:48:10;;;;;;;4.13;2.20;;;23.00;73.60;;;;;;6226857;23;20169;-96
2021/06/02 17:50:37;;;;;;;6.07;2.42;;;23.00;71.70;;;;;;6230522;23;20193;-95
2021/06/02 17:53:08;;;;;;;2.75;2.38;;;23.00;72.60;;;;;;6238193;23;20236;-96
2021/06/02 17:55:50;;;;;;;4.75;2.15;;;23.00;72.60;;;;;;6173210;23;20157;-96
2021/06/02 17:58:17;;;;;;;6.93;1.90;;;22.90;72.90;;;;;;6196680;23;20160;-96
2021/06/02 18:00:48;;;;;;;2.90;2.00;;;22.90;73.00;;;;;;6198925;23;20154;-96
2021/06/02 18:03:15;;;;;;;5.05;2.20;;;22.80;72.90;;;;;;6199233;23;20160;-96
2021/06/02 18:05:48;;;;;;;4.07;1.92;;;22.80;72.80;;;;;;6200039;23;20194;-96
2021/06/02 18:08:16;;;;;;;3.88;1.92;;;22.70;71.70;;;;;;6199900;23;20185;-96
2021/06/02 18:10:42;;;;;;;4.38;2.00;;;22.70;72.90;;;;;;6199923;23;20185;-95
2021/06/02 18:13:08;;;;;;;5.97;1.80;;;22.70;73.50;;;;;;6198954;23;20150;-96
2021/06/02 18:15:38;;;;;;;2.95;2.00;;;22.70;72.50;;;;;;6197220;23;20236;-96
2021/06/02 18:18:48;;;;;;;3.63;1.80;;;22.60;73.80;;;;;;6202042;23;20154;-96
2021/06/02 18:21:17;;;;;;;2.88;2.00;;;22.60;73.60;;;;;;6197780;23;20157;-96
2021/06/02 18:23:44;;;;;;;3.35;1.90;;;22.50;74.70;;;;;;6226245;23;20162;-96
2021/06/02 18:26:16;;;;;;;5.75;2.10;;;22.40;74.10;;;;;;6196532;23;20204;-96
2021/06/02 18:28:46;;;;;;;3.33;1.90;;;22.30;72.90;;;;;;6197725;23;20193;-96
2021/06/02 18:31:13;;;;;;;3.55;1.92;;;22.30;72.90;;;;;;6198872;23;20194;-96
2021/06/02 18:33:41;;;;;;;3.72;1.92;;;22.30;73.50;;;;;;6172592;23;20542;-96
2021/06/02 18:36:17;;;;;;;4.97;1.92;;;22.30;74.10;;;;;;6203310;23;20565;-96
2021/06/02 18:38:44;;;;;;;2.88;2.00;;;22.20;73.30;;;;;;6198931;23;20153;-96
2021/06/02 18:41:13;;;;;;;2.28;1.80;;;22.20;74.20;;;;;;6180410;23;20138;-96
2021/06/02 18:43:40;;;;;;;4.10;2.15;;;22.20;73.60;;;;;;6175559;23;20166;-96
2021/06/02 18:46:30;;;;;;;3.40;2.08;;;22.10;74.90;;;;;;6202916;23;20142;-96
2021/06/02 18:49:19;;;;;;;4.43;1.80;;;22.00;75.00;;;;;;6203944;23;20181;-96
2021/06/02 18:51:47;;;;;;;3.20;2.65;;;22.00;75.20;;;;;;6198727;23;20166;-96
2021/06/02 18:54:14;;;;;;;3.65;2.13;;;21.90;76.50;;;;;;6200963;23;20169;-96
2021/06/02 18:56:52;;;;;;;5.25;2.08;;;21.80;74.30;;;;;;6203970;23;20193;-96
2021/06/02 18:59:18;;;;;;;3.60;1.90;;;21.70;74.40;;;;;;6202904;23;20153;-96
2021/06/02 19:01:44;;;;;;;3.90;2.03;;;21.70;74.20;;;;;;6204881;23;20162;-96
2021/06/02 19:04:10;;;;;;;5.40;2.17;;;21.70;76.00;;;;;;6206592;23;20176;-96
2021/06/02 19:06:55;;;;;;;2.00;1.80;;;21.60;74.30;;;;;;6206653;23;20165;-96
2021/06/02 19:09:26;;;;;;;3.03;2.05;;;21.60;75.10;;;;;;6203468;23;20201;-96
